Terminal Aerodrome Forecast
Issued by NWS

Home | Current Version | Previous Version | Graphics & Text | Print | Product List | Glossary On
Versions: 1 2 3 4 5 6 7 8 9 10 11 12 13 14 15 16 17 18 19
000
FTUS43 KABR 012100 AAC
TAFATY
TAF AMD
KATY 012150Z 0122/0218 29012G22KT P6SM BKN035
      TEMPO 0122/0124 -SN BKN025
     FM020300 VRB05KT P6SM SKC
     FM021300 17009KT P6SM SCT250=

USA.gov is the U.S. government's official web portal to all federal, state and local government web resources and services.